KEKN/EKN METAR and TAF weather

Enter ICAO airport designator
Station Type Date Time Source
KEKN METAR 2024/06/15 23:51 UTC NOAA

KEKN 152351Z AUTO 34004KT 10SM CLR 22/11 A3016 RMK AO2 SLP207 T02220111 10261 20222 53007 $


Station Type Date Time Source
KEKN Decoded METAR 2024/06/15 23:51 UTC NOAA

JENNINGS RANDOLPH FIELD, WV, United States (KEKN) 38-53N 079-51W 603M
Jun 15, 2024 - 07:51 PM EDT / 2024.06.15 2351 UTC
Wind: from the NNW (340 degrees) at 5 MPH (4 KT):0
Visibility: 10 mile(s):0
Sky conditions: clear
Temperature: 72.0 F (22.2 C)
Dew Point: 52.0 F (11.1 C)
Relative Humidity: 49%
Pressure (altimeter): 30.16 in. Hg (1021 hPa)
Pressure tendency: 0.02 inches (0.7 hPa) higher than three hours ago
ob: KEKN 152351Z AUTO 34004KT 10SM CLR 22/11 A3016 RMK AO2 SLP207 T02220111 10261 20222 53007
cycle: 0

Station Type Date Time Source
KEKN TAF 2024/06/15 18:22 UTC NOAA